createdAt,value
2024-01-15T00:00:31.198Z,14.23
2024-01-15T00:02:58.653Z,15.77
2024-01-15T00:05:25.782Z,17.13
2024-01-15T00:07:52.612Z,14.83
2024-01-15T00:10:19.373Z,15.30
2024-01-15T00:12:46.280Z,14.83
2024-01-15T00:15:13.180Z,15.47
2024-01-15T00:17:40.560Z,15.90
2024-01-15T00:20:08.149Z,14.40
2024-01-15T00:22:36.856Z,16.77
2024-01-15T00:25:04.533Z,16.50
2024-01-15T00:27:31.433Z,15.30
2024-01-15T00:29:58.256Z,16.60
2024-01-15T00:32:25.258Z,17.77
2024-01-15T00:34:52.380Z,16.37
2024-01-15T00:37:19.346Z,16.07
2024-01-15T00:39:46.293Z,15.70
2024-01-15T00:42:13.242Z,15.03
2024-01-15T00:44:40.073Z,17.73
2024-01-15T00:47:07.032Z,14.10
2024-01-15T00:49:33.964Z,16.73
2024-01-15T00:52:00.832Z,15.43
2024-01-15T00:54:28.200Z,16.97
2024-01-15T00:56:56.218Z,15.53
2024-01-15T00:59:23.202Z,16.40
2024-01-15T01:01:50.498Z,15.47
2024-01-15T01:04:17.582Z,16.10
2024-01-15T01:06:44.578Z,16.07
2024-01-15T01:09:11.680Z,17.37
2024-01-15T01:11:38.564Z,18.90
2024-01-15T01:14:05.498Z,17.13
2024-01-15T01:16:32.729Z,16.23
2024-01-15T01:18:59.728Z,16.20
2024-01-15T01:21:26.728Z,17.73
2024-01-15T01:23:53.576Z,16.40
2024-01-15T01:26:20.404Z,20.00
2024-01-15T01:28:47.160Z,17.50
2024-01-15T01:31:14.086Z,13.97
2024-01-15T01:33:43.881Z,16.60
2024-01-15T01:36:11.249Z,15.63
2024-01-15T01:38:38.842Z,17.53
2024-01-15T01:41:05.850Z,14.33
2024-01-15T01:43:32.690Z,15.67
2024-01-15T01:46:01.408Z,15.63
2024-01-15T01:48:29.081Z,14.97
2024-01-15T01:50:59.022Z,15.37
2024-01-15T01:53:27.959Z,15.70
2024-01-15T01:55:57.207Z,14.77
2024-01-15T01:58:24.202Z,15.73
2024-01-15T02:00:51.286Z,14.87
2024-01-15T02:03:18.413Z,16.63
2024-01-15T02:05:48.392Z,16.70
2024-01-15T02:08:15.237Z,16.80
2024-01-15T02:10:42.212Z,16.93
2024-01-15T02:13:09.016Z,14.57
2024-01-15T02:15:35.969Z,16.83
2024-01-15T02:18:06.178Z,17.97
2024-01-15T02:20:33.615Z,17.37
2024-01-15T02:23:12.779Z,16.97
2024-01-15T02:25:49.392Z,17.57
2024-01-15T02:28:18.729Z,16.60
2024-01-15T02:30:45.955Z,16.00
2024-01-15T02:33:13.606Z,20.20
2024-01-15T02:35:41.054Z,19.90
2024-01-15T02:38:08.698Z,20.73
2024-01-15T02:40:36.215Z,19.73
2024-01-15T02:43:03.432Z,16.83
2024-01-15T02:45:30.448Z,18.83
2024-01-15T02:47:57.708Z,17.43
2024-01-15T02:50:24.797Z,18.07
2024-01-15T02:52:51.669Z,20.97
2024-01-15T02:55:18.650Z,19.53
2024-01-15T02:57:45.858Z,17.10
2024-01-15T03:00:13.438Z,16.87
2024-01-15T03:02:43.708Z,20.47
2024-01-15T03:05:12.363Z,19.30
2024-01-15T03:07:39.277Z,17.67
2024-01-15T03:10:09.434Z,19.13
2024-01-15T03:12:36.536Z,16.90
2024-01-15T03:15:04.135Z,17.87
2024-01-15T03:17:31.037Z,19.63
2024-01-15T03:19:58.181Z,17.17
2024-01-15T03:22:25.104Z,17.00
2024-01-15T03:24:51.948Z,18.53
2024-01-15T03:27:18.940Z,15.30
2024-01-15T03:29:45.784Z,14.70
2024-01-15T03:32:12.745Z,15.63
2024-01-15T03:34:39.891Z,17.17
2024-01-15T03:37:06.993Z,20.17
2024-01-15T03:39:34.063Z,15.23
2024-01-15T03:42:01.072Z,16.27
2024-01-15T03:44:27.934Z,17.33
2024-01-15T03:46:54.707Z,17.13
2024-01-15T03:49:21.639Z,17.63
2024-01-15T03:51:48.625Z,18.63
2024-01-15T03:54:17.669Z,17.07
2024-01-15T03:56:45.935Z,17.23
2024-01-15T03:59:12.787Z,20.53
2024-01-15T04:01:39.687Z,16.83
2024-01-15T04:04:06.679Z,18.87
2024-01-15T04:06:33.752Z,17.80
2024-01-15T04:09:00.686Z,16.40
2024-01-15T04:11:27.518Z,18.07
2024-01-15T04:13:54.352Z,17.10
2024-01-15T04:16:21.373Z,19.53
2024-01-15T04:18:48.330Z,16.80
2024-01-15T04:21:15.160Z,19.00
2024-01-15T04:23:42.013Z,18.87
2024-01-15T04:26:08.810Z,18.17
2024-01-15T04:28:35.601Z,17.87
2024-01-15T04:31:02.541Z,18.20
2024-01-15T04:33:29.736Z,18.07
2024-01-15T04:35:56.767Z,18.70
2024-01-15T04:38:23.572Z,16.73
2024-01-15T04:40:50.409Z,17.30
2024-01-15T04:43:17.320Z,16.63
2024-01-15T04:45:44.103Z,17.43
2024-01-15T04:48:11.005Z,16.03
2024-01-15T04:50:37.858Z,16.63
2024-01-15T04:53:04.867Z,16.23
2024-01-15T04:55:31.678Z,18.67
2024-01-15T04:57:58.536Z,16.83
2024-01-15T05:00:25.341Z,15.60
2024-01-15T07:57:30.770Z,9.20
2024-01-15T07:59:57.572Z,9.03
2024-01-15T08:02:24.360Z,9.37
2024-01-15T08:04:51.201Z,9.77
2024-01-15T08:07:19.106Z,9.43
2024-01-15T08:09:47.946Z,10.43
2024-01-15T08:12:15.005Z,9.57
2024-01-15T08:14:41.825Z,12.87
2024-01-15T08:17:08.592Z,10.97
2024-01-15T08:19:35.743Z,11.70
2024-01-15T08:22:02.832Z,12.97
2024-01-15T08:24:29.907Z,12.73
2024-01-15T08:26:57.470Z,14.23
2024-01-15T08:29:25.923Z,13.67
2024-01-15T08:31:53.049Z,11.80
2024-01-15T08:34:20.727Z,13.80
2024-01-15T08:36:47.895Z,13.30
2024-01-15T08:39:14.776Z,13.23
2024-01-15T08:41:41.583Z,10.83
2024-01-15T08:44:08.401Z,12.63
2024-01-15T08:46:35.153Z,13.40
2024-01-15T08:49:02.169Z,13.67
2024-01-15T08:51:29.284Z,14.17
2024-01-15T08:53:57.716Z,13.47
2024-01-15T08:56:24.623Z,12.37
2024-01-15T08:58:51.452Z,13.70
2024-01-15T09:01:18.428Z,12.03
2024-01-15T09:03:45.443Z,11.93
2024-01-15T09:06:12.548Z,13.17
2024-01-15T09:08:39.378Z,11.00
2024-01-15T09:11:06.608Z,12.00
2024-01-15T09:13:33.533Z,10.50
2024-01-15T09:16:01.380Z,9.90
2024-01-15T09:18:29.076Z,9.47
2024-01-15T09:20:55.973Z,9.80
2024-01-15T09:23:22.827Z,10.53
2024-01-15T09:25:50.110Z,8.40
2024-01-15T09:28:16.929Z,8.70
2024-01-15T09:30:43.859Z,6.87
2024-01-15T09:33:11.080Z,8.60
2024-01-15T09:35:38.217Z,7.73
2024-01-15T09:38:05.295Z,8.40
2024-01-15T09:40:34.709Z,8.77
2024-01-15T09:43:02.733Z,7.50
2024-01-15T09:45:30.508Z,9.47
2024-01-15T09:47:58.014Z,7.60
2024-01-15T09:50:24.983Z,9.50
2024-01-15T09:52:52.775Z,9.63
2024-01-15T09:55:19.732Z,9.77
2024-01-15T09:57:49.891Z,9.80
2024-01-15T10:00:19.708Z,9.97
2024-01-15T10:02:47.019Z,9.73
2024-01-15T10:05:13.968Z,9.93
2024-01-15T10:07:41.820Z,9.80
2024-01-15T10:10:09.083Z,10.47
2024-01-15T10:12:36.145Z,11.10
2024-01-15T10:15:02.988Z,11.90
2024-01-15T10:17:30.061Z,11.23
2024-01-15T10:19:57.541Z,10.83
2024-01-15T10:22:24.505Z,12.77
2024-01-15T10:24:51.557Z,12.50
2024-01-15T10:27:18.540Z,12.30
2024-01-15T10:29:45.415Z,11.43
2024-01-15T10:32:12.968Z,13.13
2024-01-15T10:34:44.645Z,12.10
2024-01-15T10:37:12.304Z,13.30
2024-01-15T10:39:40.414Z,11.27
2024-01-15T10:42:08.475Z,11.60
2024-01-15T10:44:36.010Z,10.80
2024-01-15T10:47:03.147Z,12.63
2024-01-15T10:49:33.219Z,11.80
2024-01-15T10:52:03.580Z,13.00
2024-01-15T10:54:31.222Z,11.23
2024-01-15T10:56:58.608Z,12.43
2024-01-15T10:59:26.035Z,12.13
2024-01-15T11:01:57.709Z,12.33
2024-01-15T11:04:28.375Z,10.45
2024-01-15T11:06:57.471Z,9.87
2024-01-15T11:09:25.812Z,13.60
2024-01-15T11:12:07.519Z,12.57
2024-01-15T11:14:40.445Z,11.47
2024-01-15T11:17:07.688Z,10.73
2024-01-15T11:19:46.119Z,9.97
2024-01-15T11:22:33.826Z,10.97
2024-01-15T11:25:24.311Z,11.53
2024-01-15T11:27:54.417Z,9.97
2024-01-15T11:30:26.885Z,10.37
2024-01-15T11:32:54.210Z,10.35
2024-01-15T11:35:21.158Z,9.10
2024-01-15T11:37:56.080Z,12.43
2024-01-15T11:40:24.778Z,10.73
2024-01-15T11:42:53.706Z,10.10
2024-01-15T11:45:21.797Z,10.80
2024-01-15T11:48:11.185Z,10.67
2024-01-15T11:50:41.737Z,10.17
2024-01-15T11:53:17.598Z,11.07
2024-01-15T11:55:50.197Z,12.27
2024-01-15T12:00:47.070Z,12.77
2024-01-15T12:03:14.093Z,10.67
2024-01-15T12:05:43.246Z,12.40
2024-01-15T12:08:12.344Z,9.80
2024-01-15T12:10:42.549Z,9.77
2024-01-15T12:13:19.056Z,9.17
2024-01-15T12:15:49.919Z,8.97
2024-01-15T12:18:19.706Z,10.37
2024-01-15T12:20:50.933Z,8.47
2024-01-15T12:23:18.830Z,8.27
2024-01-15T12:25:46.279Z,9.33
2024-01-15T12:28:13.306Z,9.13
2024-01-15T12:30:40.472Z,9.23
2024-01-15T12:33:10.102Z,10.90
2024-01-15T12:35:38.275Z,8.47
2024-01-15T12:38:05.596Z,8.77
2024-01-15T12:40:34.554Z,8.00
2024-01-15T12:43:02.006Z,9.00
2024-01-15T12:45:29.146Z,8.80
2024-01-15T12:47:56.563Z,9.53
2024-01-15T12:50:27.328Z,8.30
2024-01-15T12:52:54.410Z,8.30
2024-01-15T12:55:21.381Z,8.90
2024-01-15T12:57:48.409Z,7.07
2024-01-15T13:00:16.410Z,7.27
2024-01-15T13:02:46.635Z,7.77
2024-01-15T13:05:15.142Z,6.43
2024-01-15T13:07:46.261Z,6.10
2024-01-15T13:10:14.012Z,6.53
2024-01-15T13:12:42.723Z,5.70
2024-01-15T13:15:15.228Z,5.77
2024-01-15T13:17:44.317Z,5.80
2024-01-15T13:20:12.651Z,5.83
2024-01-15T13:22:41.262Z,4.50
2024-01-15T13:25:09.588Z,5.30
2024-01-15T13:27:37.224Z,4.57
2024-01-15T13:30:05.933Z,5.07
2024-01-15T13:32:32.922Z,5.50
2024-01-15T13:35:01.409Z,5.53
2024-01-15T13:37:28.946Z,5.43
2024-01-15T13:39:56.187Z,5.37
2024-01-15T13:42:28.817Z,3.50
2024-01-15T13:44:56.041Z,4.20
2024-01-15T13:47:23.143Z,4.70
2024-01-15T13:49:50.808Z,4.53
2024-01-15T13:52:19.177Z,4.60
2024-01-15T13:54:50.200Z,4.53
2024-01-15T13:57:19.566Z,4.05
2024-01-15T13:59:47.122Z,3.67
2024-01-15T14:02:16.084Z,3.83
2024-01-15T14:04:44.851Z,3.63
2024-01-15T14:07:11.801Z,3.50
2024-01-15T14:09:39.334Z,3.70
2024-01-15T14:12:07.709Z,3.43
2024-01-15T14:14:34.864Z,4.70
2024-01-15T14:17:01.950Z,4.40
2024-01-15T14:19:29.373Z,3.50
2024-01-15T14:21:57.111Z,3.63
2024-01-15T14:24:24.315Z,4.27
2024-01-15T14:26:51.264Z,3.40
2024-01-15T14:29:20.453Z,3.57
2024-01-15T14:31:47.935Z,3.40
2024-01-15T14:34:15.137Z,4.27
2024-01-15T14:36:42.755Z,2.70
2024-01-15T14:39:10.926Z,3.23
2024-01-15T14:41:37.966Z,3.50
2024-01-15T14:44:06.276Z,3.40
2024-01-15T14:46:33.111Z,3.10
2024-01-15T14:49:00.111Z,2.87
2024-01-15T14:51:27.549Z,3.17
2024-01-15T14:53:54.381Z,3.40
2024-01-15T14:56:21.635Z,3.47
2024-01-15T14:58:48.488Z,3.53
2024-01-15T15:01:15.543Z,3.03
2024-01-15T15:03:42.626Z,3.27
2024-01-15T15:06:10.274Z,3.00
2024-01-15T15:08:38.159Z,3.20
2024-01-15T15:11:05.649Z,4.13
2024-01-15T15:13:41.749Z,3.10
2024-01-15T15:16:12.558Z,3.37
2024-01-15T15:18:39.907Z,4.80
2024-01-15T15:21:08.870Z,3.23
2024-01-15T15:23:36.716Z,3.03
2024-01-15T15:26:04.638Z,3.53
2024-01-15T15:28:31.511Z,3.13
2024-01-15T15:30:58.480Z,3.37
2024-01-15T15:33:26.262Z,3.40
2024-01-15T15:35:53.829Z,3.67
2024-01-15T15:38:21.360Z,3.47
2024-01-15T15:40:48.238Z,3.10
2024-01-15T15:43:15.078Z,4.00
2024-01-15T15:45:42.066Z,3.47
2024-01-15T15:48:09.043Z,3.93
2024-01-15T15:50:37.876Z,3.70
2024-01-15T15:53:05.383Z,3.93
2024-01-15T15:55:33.130Z,4.27
2024-01-15T15:58:00.327Z,3.63
2024-01-15T16:00:27.412Z,4.60
2024-01-15T16:02:54.416Z,4.07
2024-01-15T16:05:21.554Z,4.07
2024-01-15T16:07:49.142Z,3.33
2024-01-15T16:10:16.510Z,4.63
2024-01-15T16:12:43.400Z,3.63
2024-01-15T16:15:22.207Z,3.70
2024-01-15T16:23:17.924Z,3.53
2024-01-15T16:24:05.337Z,3.67
2024-01-15T16:26:18.079Z,3.83
2024-01-15T16:28:45.416Z,3.90
2024-01-15T16:31:12.226Z,2.90
2024-01-15T16:33:39.120Z,3.17
2024-01-15T16:36:06.204Z,3.13
2024-01-15T16:38:33.190Z,3.10
2024-01-15T16:41:00.287Z,2.80
2024-01-15T16:43:27.884Z,2.80
2024-01-15T16:45:54.874Z,3.37
2024-01-15T16:48:22.014Z,3.10
2024-01-15T16:50:49.046Z,2.50
2024-01-15T16:53:15.995Z,2.90
2024-01-15T16:55:43.042Z,3.50
2024-01-15T16:58:10.885Z,3.40
2024-01-15T17:00:37.656Z,4.17
2024-01-15T17:03:04.945Z,3.53
2024-01-15T17:05:31.957Z,2.80
2024-01-15T17:07:58.968Z,3.13
2024-01-15T17:10:25.964Z,3.70
2024-01-15T17:12:52.764Z,3.17
2024-01-15T17:15:19.710Z,2.93
2024-01-15T17:17:46.682Z,3.00
2024-01-15T17:20:14.297Z,3.23
2024-01-15T17:22:41.389Z,3.40
2024-01-15T17:25:08.629Z,4.10
2024-01-15T17:27:35.495Z,2.90
2024-01-15T17:30:02.340Z,4.57
2024-01-15T17:32:31.164Z,4.03
2024-01-15T17:34:58.029Z,3.73
2024-01-15T17:37:25.355Z,3.47
2024-01-15T17:39:53.886Z,3.07
2024-01-15T17:42:20.691Z,3.80
2024-01-15T17:44:48.462Z,3.60
2024-01-15T17:47:15.416Z,3.77
2024-01-15T17:49:42.225Z,3.60
2024-01-15T17:52:09.942Z,3.63
2024-01-15T17:54:37.011Z,3.73
2024-01-15T17:57:04.079Z,3.50
2024-01-15T17:59:31.065Z,3.50
2024-01-15T18:01:57.982Z,3.93
2024-01-15T18:04:24.939Z,3.80
2024-01-15T18:06:52.850Z,4.53
2024-01-15T18:09:20.614Z,4.13
2024-01-15T18:11:47.482Z,4.43
2024-01-15T18:14:14.468Z,3.67
2024-01-15T18:16:41.373Z,3.67
2024-01-15T18:19:08.375Z,3.20
2024-01-15T18:21:35.187Z,3.33
2024-01-15T18:24:02.097Z,2.87
2024-01-15T18:26:28.963Z,3.30
2024-01-15T18:28:56.379Z,3.40
2024-01-15T18:31:23.260Z,4.00
2024-01-15T18:33:50.287Z,3.40
2024-01-15T18:36:17.313Z,3.47
2024-01-15T18:38:44.261Z,3.73
2024-01-15T18:41:21.162Z,2.57
2024-01-15T18:43:48.053Z,3.63
2024-01-15T18:46:14.917Z,3.10
2024-01-15T18:49:14.588Z,3.50
2024-01-15T18:51:41.581Z,3.87
2024-01-15T18:54:08.380Z,3.27
2024-01-15T18:56:42.006Z,3.03
2024-01-15T18:59:09.379Z,3.30
2024-01-15T19:01:37.356Z,4.23
2024-01-15T19:04:04.745Z,3.10
2024-01-15T19:06:31.609Z,3.20
2024-01-15T19:08:58.507Z,3.37
2024-01-15T19:11:25.538Z,4.07
2024-01-15T19:13:53.263Z,3.43
2024-01-15T19:16:23.462Z,3.80
2024-01-15T19:18:51.739Z,3.37
2024-01-15T19:21:18.904Z,4.07
2024-01-15T19:23:45.920Z,3.63
2024-01-15T19:26:19.870Z,4.13
2024-01-15T19:28:47.384Z,3.53
2024-01-15T19:31:14.388Z,4.00
2024-01-15T19:33:43.706Z,4.57
2024-01-15T19:36:22.228Z,3.57
2024-01-15T19:38:49.702Z,5.23
2024-01-15T19:41:16.567Z,4.20
2024-01-15T19:43:43.479Z,4.00
2024-01-15T19:46:10.548Z,3.77
2024-01-15T19:48:37.947Z,3.70
2024-01-15T19:51:04.976Z,3.50
2024-01-15T19:53:31.961Z,3.83
2024-01-15T19:55:58.878Z,3.17
2024-01-15T19:58:25.780Z,4.40
2024-01-15T20:00:52.985Z,4.53
2024-01-15T20:03:19.993Z,4.07
2024-01-15T20:05:46.942Z,5.70
2024-01-15T20:08:13.861Z,4.80
2024-01-15T20:10:40.669Z,4.33
2024-01-15T20:13:07.722Z,4.03
2024-01-15T20:15:37.708Z,4.60
2024-01-15T20:18:06.738Z,3.93
2024-01-15T20:20:33.669Z,5.80
2024-01-15T20:23:01.964Z,4.20
2024-01-15T20:25:29.152Z,4.73
2024-01-15T20:27:56.130Z,4.10
2024-01-15T20:30:23.129Z,4.20
2024-01-15T20:32:50.150Z,4.60
2024-01-15T20:35:17.019Z,3.57
2024-01-15T20:37:43.930Z,3.90
2024-01-15T20:40:11.113Z,5.63
2024-01-15T20:42:38.093Z,3.87
2024-01-15T20:45:05.881Z,4.00
2024-01-15T20:47:32.920Z,4.80
2024-01-15T20:49:59.908Z,4.20
2024-01-15T20:52:26.898Z,4.20
2024-01-15T20:54:53.768Z,5.10
2024-01-15T20:57:20.681Z,5.10
2024-01-15T20:59:51.324Z,5.03
2024-01-15T21:02:18.805Z,4.70
2024-01-15T21:04:45.820Z,4.27
2024-01-15T21:07:12.827Z,4.43
2024-01-15T21:09:41.375Z,5.23
2024-01-15T21:12:11.323Z,5.40
2024-01-15T21:14:39.879Z,5.73
2024-01-15T21:17:06.857Z,5.07
2024-01-15T21:19:33.802Z,4.73
2024-01-15T21:22:00.813Z,4.90
2024-01-15T21:24:29.136Z,5.90
2024-01-15T21:26:58.159Z,5.73
2024-01-15T21:29:28.822Z,4.87
2024-01-15T21:31:55.927Z,5.40
2024-01-15T21:34:23.144Z,5.47
2024-01-15T21:36:51.276Z,4.83
2024-01-15T21:39:18.791Z,4.50
2024-01-15T21:41:46.419Z,5.03
2024-01-15T21:44:14.140Z,5.77
2024-01-15T21:46:41.121Z,4.83
2024-01-15T21:49:08.078Z,5.23
2024-01-15T21:51:35.710Z,5.00
2024-01-15T21:54:03.270Z,5.30
2024-01-15T21:56:30.180Z,5.03
2024-01-15T21:58:57.119Z,4.43
2024-01-15T22:01:24.079Z,5.63
2024-01-15T22:03:51.094Z,4.83
2024-01-15T22:06:18.071Z,4.60
2024-01-15T22:08:46.263Z,5.53
2024-01-15T22:11:13.284Z,5.30
2024-01-15T22:13:40.620Z,4.40
2024-01-15T22:16:08.040Z,4.97
2024-01-15T22:18:36.647Z,5.00
2024-01-15T22:21:03.662Z,4.90
2024-01-15T22:23:30.688Z,5.07
2024-01-15T22:25:57.704Z,6.70
2024-01-15T22:28:24.741Z,4.90
2024-01-15T22:30:51.718Z,5.70
2024-01-15T22:33:18.838Z,5.07
2024-01-15T22:35:46.117Z,5.13
2024-01-15T22:38:13.262Z,4.90
2024-01-15T22:40:40.305Z,5.47
2024-01-15T22:43:07.398Z,4.17
2024-01-15T22:45:34.460Z,4.53
2024-01-15T22:48:01.847Z,5.03
2024-01-15T22:50:28.951Z,5.43
2024-01-15T22:52:56.066Z,5.20
2024-01-15T22:55:23.063Z,4.80
2024-01-15T22:57:50.100Z,4.97
2024-01-15T23:00:20.944Z,5.03
2024-01-15T23:02:48.969Z,5.60
2024-01-15T23:05:17.598Z,5.53
2024-01-15T23:07:44.754Z,6.43
2024-01-15T23:10:11.947Z,5.60
2024-01-15T23:12:39.220Z,6.27
2024-01-15T23:15:06.213Z,5.27
2024-01-15T23:17:33.170Z,6.20
2024-01-15T23:20:00.235Z,4.60
2024-01-15T23:22:27.202Z,5.17
2024-01-15T23:24:54.028Z,5.00
2024-01-15T23:27:20.831Z,5.70
2024-01-15T23:29:47.838Z,5.73
2024-01-15T23:32:14.750Z,4.60
2024-01-15T23:34:41.917Z,4.90
2024-01-15T23:37:08.778Z,4.63
2024-01-15T23:39:35.592Z,4.80
2024-01-15T23:42:03.290Z,5.67
2024-01-15T23:44:30.133Z,5.83
2024-01-15T23:46:57.009Z,6.40
2024-01-15T23:49:23.984Z,4.97
2024-01-15T23:51:50.934Z,5.23
2024-01-15T23:54:18.896Z,5.57
2024-01-15T23:56:45.863Z,5.37
2024-01-15T23:59:13.410Z,4.53
